sensor_id;sensor_type;location;lat;lon;timestamp;temperature;humidity
60909;DHT22;46780;48.128;-1.704;2022-11-13T00:00:45;14.30;95.00
60909;DHT22;46780;48.128;-1.704;2022-11-13T00:03:12;14.30;95.10
60909;DHT22;46780;48.128;-1.704;2022-11-13T00:05:40;14.30;95.10
60909;DHT22;46780;48.128;-1.704;2022-11-13T00:08:06;14.30;95.20
60909;DHT22;46780;48.128;-1.704;2022-11-13T00:10:33;14.30;95.30
60909;DHT22;46780;48.128;-1.704;2022-11-13T00:12:59;14.30;95.30
60909;DHT22;46780;48.128;-1.704;2022-11-13T00:15:26;14.20;95.40
60909;DHT22;46780;48.128;-1.704;2022-11-13T00:17:52;14.20;95.40
60909;DHT22;46780;48.128;-1.704;2022-11-13T00:20:19;14.20;95.40
60909;DHT22;46780;48.128;-1.704;2022-11-13T00:22:47;14.20;95.40
60909;DHT22;46780;48.128;-1.704;2022-11-13T00:25:13;14.20;95.50
60909;DHT22;46780;48.128;-1.704;2022-11-13T00:27:40;14.20;95.60
60909;DHT22;46780;48.128;-1.704;2022-11-13T00:30:07;14.20;95.60
60909;DHT22;46780;48.128;-1.704;2022-11-13T00:32:34;14.20;95.60
60909;DHT22;46780;48.128;-1.704;2022-11-13T00:35:00;14.20;95.60
60909;DHT22;46780;48.128;-1.704;2022-11-13T00:37:27;14.20;95.70
60909;DHT22;46780;48.128;-1.704;2022-11-13T00:39:54;14.10;95.70
60909;DHT22;46780;48.128;-1.704;2022-11-13T00:42:21;14.10;95.70
60909;DHT22;46780;48.128;-1.704;2022-11-13T00:44:47;14.10;95.80
60909;DHT22;46780;48.128;-1.704;2022-11-13T00:47:14;14.10;95.80
60909;DHT22;46780;48.128;-1.704;2022-11-13T00:49:40;14.00;95.90
60909;DHT22;46780;48.128;-1.704;2022-11-13T00:52:07;14.00;96.00
60909;DHT22;46780;48.128;-1.704;2022-11-13T00:54:33;14.00;96.00
60909;DHT22;46780;48.128;-1.704;2022-11-13T00:57:01;14.00;96.10
60909;DHT22;46780;48.128;-1.704;2022-11-13T00:59:28;14.00;96.00
60909;DHT22;46780;48.128;-1.704;2022-11-13T01:01:54;13.90;96.10
60909;DHT22;46780;48.128;-1.704;2022-11-13T01:04:21;13.90;96.20
60909;DHT22;46780;48.128;-1.704;2022-11-13T01:06:47;13.90;96.20
60909;DHT22;46780;48.128;-1.704;2022-11-13T01:09:14;13.90;96.30
60909;DHT22;46780;48.128;-1.704;2022-11-13T01:11:40;13.90;96.30
60909;DHT22;46780;48.128;-1.704;2022-11-13T01:14:08;13.80;96.30
60909;DHT22;46780;48.128;-1.704;2022-11-13T01:16:35;13.80;96.30
60909;DHT22;46780;48.128;-1.704;2022-11-13T01:19:01;13.80;96.40
60909;DHT22;46780;48.128;-1.704;2022-11-13T01:21:28;13.80;96.90
60909;DHT22;46780;48.128;-1.704;2022-11-13T01:23:54;13.80;96.50
60909;DHT22;46780;48.128;-1.704;2022-11-13T01:26:22;13.80;96.50
60909;DHT22;46780;48.128;-1.704;2022-11-13T01:28:49;13.70;96.50
60909;DHT22;46780;48.128;-1.704;2022-11-13T01:31:20;13.70;96.50
60909;DHT22;46780;48.128;-1.704;2022-11-13T01:33:47;13.70;96.50
60909;DHT22;46780;48.128;-1.704;2022-11-13T01:36:15;13.70;96.40
60909;DHT22;46780;48.128;-1.704;2022-11-13T01:38:42;13.70;96.50
60909;DHT22;46780;48.128;-1.704;2022-11-13T01:41:15;13.70;96.50
60909;DHT22;46780;48.128;-1.704;2022-11-13T01:43:41;13.70;96.40
60909;DHT22;46780;48.128;-1.704;2022-11-13T01:46:18;13.60;96.40
60909;DHT22;46780;48.128;-1.704;2022-11-13T01:48:47;13.60;96.40
60909;DHT22;46780;48.128;-1.704;2022-11-13T01:51:16;13.60;96.50
60909;DHT22;46780;48.128;-1.704;2022-11-13T01:53:45;13.60;96.40
60909;DHT22;46780;48.128;-1.704;2022-11-13T01:56:12;13.60;96.60
60909;DHT22;46780;48.128;-1.704;2022-11-13T01:58:41;13.60;96.60
60909;DHT22;46780;48.128;-1.704;2022-11-13T02:01:08;13.60;96.60
60909;DHT22;46780;48.128;-1.704;2022-11-13T02:03:36;13.60;96.50
60909;DHT22;46780;48.128;-1.704;2022-11-13T02:06:03;13.60;96.50
60909;DHT22;46780;48.128;-1.704;2022-11-13T02:08:29;13.60;96.40
60909;DHT22;46780;48.128;-1.704;2022-11-13T02:10:56;13.60;96.40
60909;DHT22;46780;48.128;-1.704;2022-11-13T02:13:23;13.60;96.40
60909;DHT22;46780;48.128;-1.704;2022-11-13T02:15:50;13.60;96.30
60909;DHT22;46780;48.128;-1.704;2022-11-13T02:18:20;13.50;96.20
60909;DHT22;46780;48.128;-1.704;2022-11-13T02:20:54;13.60;96.10
60909;DHT22;46780;48.128;-1.704;2022-11-13T02:23:30;13.50;96.00
60909;DHT22;46780;48.128;-1.704;2022-11-13T02:26:02;13.60;96.00
60909;DHT22;46780;48.128;-1.704;2022-11-13T02:28:29;13.50;96.00
60909;DHT22;46780;48.128;-1.704;2022-11-13T02:30:55;13.50;95.90
60909;DHT22;46780;48.128;-1.704;2022-11-13T02:33:26;13.50;95.80
60909;DHT22;46780;48.128;-1.704;2022-11-13T02:35:53;13.50;95.80
60909;DHT22;46780;48.128;-1.704;2022-11-13T02:38:20;13.50;95.80
60909;DHT22;46780;48.128;-1.704;2022-11-13T02:40:46;13.50;95.80
60909;DHT22;46780;48.128;-1.704;2022-11-13T02:43:14;13.50;95.80
60909;DHT22;46780;48.128;-1.704;2022-11-13T02:45:41;13.50;95.70
60909;DHT22;46780;48.128;-1.704;2022-11-13T02:48:07;13.50;95.60
60909;DHT22;46780;48.128;-1.704;2022-11-13T02:50:35;13.50;95.50
60909;DHT22;46780;48.128;-1.704;2022-11-13T02:53:02;13.50;95.50
60909;DHT22;46780;48.128;-1.704;2022-11-13T02:55:29;13.50;95.50
60909;DHT22;46780;48.128;-1.704;2022-11-13T02:57:56;13.50;95.40
60909;DHT22;46780;48.128;-1.704;2022-11-13T03:00:24;13.50;95.30
60909;DHT22;46780;48.128;-1.704;2022-11-13T03:02:50;13.50;95.30
60909;DHT22;46780;48.128;-1.704;2022-11-13T03:05:17;13.50;95.20
60909;DHT22;46780;48.128;-1.704;2022-11-13T03:07:44;13.40;95.20
60909;DHT22;46780;48.128;-1.704;2022-11-13T03:10:11;13.40;95.10
60909;DHT22;46780;48.128;-1.704;2022-11-13T03:12:37;13.40;95.10
60909;DHT22;46780;48.128;-1.704;2022-11-13T03:15:05;13.40;95.10
60909;DHT22;46780;48.128;-1.704;2022-11-13T03:17:33;13.40;95.10
60909;DHT22;46780;48.128;-1.704;2022-11-13T03:20:00;13.30;95.10
60909;DHT22;46780;48.128;-1.704;2022-11-13T03:22:27;13.30;95.10
60909;DHT22;46780;48.128;-1.704;2022-11-13T03:24:53;13.30;95.10
60909;DHT22;46780;48.128;-1.704;2022-11-13T03:27:20;13.30;95.10
60909;DHT22;46780;48.128;-1.704;2022-11-13T03:29:47;13.30;95.20
60909;DHT22;46780;48.128;-1.704;2022-11-13T03:32:13;13.20;95.20
60909;DHT22;46780;48.128;-1.704;2022-11-13T03:34:41;13.20;95.40
60909;DHT22;46780;48.128;-1.704;2022-11-13T03:37:08;13.20;95.50
60909;DHT22;46780;48.128;-1.704;2022-11-13T03:39:34;13.20;95.50
60909;DHT22;46780;48.128;-1.704;2022-11-13T03:42:01;13.20;95.50
60909;DHT22;46780;48.128;-1.704;2022-11-13T03:44:27;13.20;95.40
60909;DHT22;46780;48.128;-1.704;2022-11-13T03:46:54;13.20;95.50
60909;DHT22;46780;48.128;-1.704;2022-11-13T03:49:20;13.10;95.40
60909;DHT22;46780;48.128;-1.704;2022-11-13T03:51:48;13.20;95.40
60909;DHT22;46780;48.128;-1.704;2022-11-13T03:54:15;13.20;95.70
60909;DHT22;46780;48.128;-1.704;2022-11-13T03:56:41;13.20;95.20
60909;DHT22;46780;48.128;-1.704;2022-11-13T03:59:08;13.20;95.20
60909;DHT22;46780;48.128;-1.704;2022-11-13T04:01:34;13.20;95.10
60909;DHT22;46780;48.128;-1.704;2022-11-13T04:04:02;13.20;95.10
60909;DHT22;46780;48.128;-1.704;2022-11-13T04:06:29;13.20;95.10
60909;DHT22;46780;48.128;-1.704;2022-11-13T04:08:59;13.20;95.00
60909;DHT22;46780;48.128;-1.704;2022-11-13T04:11:27;13.10;95.10
60909;DHT22;46780;48.128;-1.704;2022-11-13T04:13:54;13.10;95.20
60909;DHT22;46780;48.128;-1.704;2022-11-13T04:16:22;13.10;95.20
60909;DHT22;46780;48.128;-1.704;2022-11-13T04:18:49;13.20;95.00
60909;DHT22;46780;48.128;-1.704;2022-11-13T04:21:17;13.10;94.90
60909;DHT22;46780;48.128;-1.704;2022-11-13T04:23:44;13.10;94.80
60909;DHT22;46780;48.128;-1.704;2022-11-13T04:26:12;13.10;94.80
60909;DHT22;46780;48.128;-1.704;2022-11-13T04:28:39;13.10;94.80
60909;DHT22;46780;48.128;-1.704;2022-11-13T04:31:07;13.10;94.80
60909;DHT22;46780;48.128;-1.704;2022-11-13T04:33:34;13.10;94.80
60909;DHT22;46780;48.128;-1.704;2022-11-13T04:36:02;13.00;94.70
60909;DHT22;46780;48.128;-1.704;2022-11-13T04:38:29;13.00;94.70
60909;DHT22;46780;48.128;-1.704;2022-11-13T04:40:56;13.00;94.70
60909;DHT22;46780;48.128;-1.704;2022-11-13T04:43:23;13.00;94.70
60909;DHT22;46780;48.128;-1.704;2022-11-13T04:45:51;13.00;94.70
60909;DHT22;46780;48.128;-1.704;2022-11-13T04:48:18;12.90;94.80
60909;DHT22;46780;48.128;-1.704;2022-11-13T04:50:45;12.90;94.70
60909;DHT22;46780;48.128;-1.704;2022-11-13T04:53:12;12.90;94.80
60909;DHT22;46780;48.128;-1.704;2022-11-13T04:55:38;12.90;94.80
60909;DHT22;46780;48.128;-1.704;2022-11-13T04:58:05;12.90;94.80
60909;DHT22;46780;48.128;-1.704;2022-11-13T05:00:33;12.90;94.70
60909;DHT22;46780;48.128;-1.704;2022-11-13T05:03:00;12.80;94.70
60909;DHT22;46780;48.128;-1.704;2022-11-13T05:05:26;12.80;94.70
60909;DHT22;46780;48.128;-1.704;2022-11-13T05:07:53;12.80;94.90
60909;DHT22;46780;48.128;-1.704;2022-11-13T05:10:20;12.70;94.90
60909;DHT22;46780;48.128;-1.704;2022-11-13T05:12:47;12.70;94.90
60909;DHT22;46780;48.128;-1.704;2022-11-13T05:15:13;12.70;94.90
60909;DHT22;46780;48.128;-1.704;2022-11-13T05:17:42;12.70;94.90
60909;DHT22;46780;48.128;-1.704;2022-11-13T05:20:09;12.70;94.90
60909;DHT22;46780;48.128;-1.704;2022-11-13T05:22:36;12.70;94.90
60909;DHT22;46780;48.128;-1.704;2022-11-13T05:25:03;12.70;95.40
60909;DHT22;46780;48.128;-1.704;2022-11-13T05:27:29;12.60;94.90
60909;DHT22;46780;48.128;-1.704;2022-11-13T05:29:56;12.60;94.90
60909;DHT22;46780;48.128;-1.704;2022-11-13T05:32:22;12.60;94.90
60909;DHT22;46780;48.128;-1.704;2022-11-13T05:34:50;12.60;95.00
60909;DHT22;46780;48.128;-1.704;2022-11-13T05:37:17;12.60;95.00
60909;DHT22;46780;48.128;-1.704;2022-11-13T05:39:43;12.50;95.10
60909;DHT22;46780;48.128;-1.704;2022-11-13T05:42:10;12.50;95.10
60909;DHT22;46780;48.128;-1.704;2022-11-13T05:44:36;12.50;95.10
60909;DHT22;46780;48.128;-1.704;2022-11-13T05:47:03;12.50;95.20
60909;DHT22;46780;48.128;-1.704;2022-11-13T05:49:29;12.40;95.20
60909;DHT22;46780;48.128;-1.704;2022-11-13T05:51:57;12.40;95.20
60909;DHT22;46780;48.128;-1.704;2022-11-13T05:54:24;12.40;95.20
60909;DHT22;46780;48.128;-1.704;2022-11-13T05:56:50;12.40;95.20
60909;DHT22;46780;48.128;-1.704;2022-11-13T05:59:17;12.40;95.20
60909;DHT22;46780;48.128;-1.704;2022-11-13T06:01:43;12.40;95.20
60909;DHT22;46780;48.128;-1.704;2022-11-13T06:04:10;12.40;95.10
60909;DHT22;46780;48.128;-1.704;2022-11-13T06:06:36;12.40;95.10
60909;DHT22;46780;48.128;-1.704;2022-11-13T06:09:05;12.40;95.10
60909;DHT22;46780;48.128;-1.704;2022-11-13T06:11:32;12.30;95.10
60909;DHT22;46780;48.128;-1.704;2022-11-13T06:13:59;12.30;95.10
60909;DHT22;46780;48.128;-1.704;2022-11-13T06:16:27;12.30;95.20
60909;DHT22;46780;48.128;-1.704;2022-11-13T06:18:55;12.30;95.20
60909;DHT22;46780;48.128;-1.704;2022-11-13T06:21:24;12.20;95.20
60909;DHT22;46780;48.128;-1.704;2022-11-13T06:23:51;12.20;95.20
60909;DHT22;46780;48.128;-1.704;2022-11-13T06:26:21;12.20;95.20
60909;DHT22;46780;48.128;-1.704;2022-11-13T06:28:48;12.20;95.20
60909;DHT22;46780;48.128;-1.704;2022-11-13T06:31:17;12.20;95.20
60909;DHT22;46780;48.128;-1.704;2022-11-13T06:33:44;12.20;95.30
60909;DHT22;46780;48.128;-1.704;2022-11-13T06:36:12;12.20;95.30
60909;DHT22;46780;48.128;-1.704;2022-11-13T06:38:39;12.10;95.30
60909;DHT22;46780;48.128;-1.704;2022-11-13T06:41:07;12.10;95.40
60909;DHT22;46780;48.128;-1.704;2022-11-13T06:43:36;12.10;95.50
60909;DHT22;46780;48.128;-1.704;2022-11-13T06:46:03;12.00;95.50
60909;DHT22;46780;48.128;-1.704;2022-11-13T06:48:31;12.00;95.60
60909;DHT22;46780;48.128;-1.704;2022-11-13T06:51:00;12.00;95.60
60909;DHT22;46780;48.128;-1.704;2022-11-13T06:53:26;12.00;95.70
60909;DHT22;46780;48.128;-1.704;2022-11-13T06:55:53;12.00;95.70
60909;DHT22;46780;48.128;-1.704;2022-11-13T06:58:19;12.00;95.80
60909;DHT22;46780;48.128;-1.704;2022-11-13T07:00:47;12.00;96.20
60909;DHT22;46780;48.128;-1.704;2022-11-13T07:03:15;12.00;95.80
60909;DHT22;46780;48.128;-1.704;2022-11-13T07:05:42;12.00;95.80
60909;DHT22;46780;48.128;-1.704;2022-11-13T07:08:09;12.00;95.90
60909;DHT22;46780;48.128;-1.704;2022-11-13T07:10:35;12.00;96.00
60909;DHT22;46780;48.128;-1.704;2022-11-13T07:13:02;12.10;96.00
60909;DHT22;46780;48.128;-1.704;2022-11-13T07:15:28;12.10;96.00
60909;DHT22;46780;48.128;-1.704;2022-11-13T07:17:59;12.10;96.20
60909;DHT22;46780;48.128;-1.704;2022-11-13T07:20:26;12.00;96.20
60909;DHT22;46780;48.128;-1.704;2022-11-13T07:22:54;12.10;96.30
60909;DHT22;46780;48.128;-1.704;2022-11-13T07:25:20;12.10;96.30
60909;DHT22;46780;48.128;-1.704;2022-11-13T07:27:47;12.10;96.40
60909;DHT22;46780;48.128;-1.704;2022-11-13T07:30:13;12.10;96.40
60909;DHT22;46780;48.128;-1.704;2022-11-13T07:32:40;12.10;96.50
60909;DHT22;46780;48.128;-1.704;2022-11-13T07:35:09;12.10;96.60
60909;DHT22;46780;48.128;-1.704;2022-11-13T07:37:35;12.10;96.50
60909;DHT22;46780;48.128;-1.704;2022-11-13T07:40:03;12.10;96.60
60909;DHT22;46780;48.128;-1.704;2022-11-13T07:42:30;12.10;96.60
60909;DHT22;46780;48.128;-1.704;2022-11-13T07:44:56;12.10;96.60
60909;DHT22;46780;48.128;-1.704;2022-11-13T07:47:24;12.10;96.50
60909;DHT22;46780;48.128;-1.704;2022-11-13T07:49:50;12.20;96.50
60909;DHT22;46780;48.128;-1.704;2022-11-13T07:52:18;12.20;96.40
60909;DHT22;46780;48.128;-1.704;2022-11-13T07:54:45;12.20;96.40
60909;DHT22;46780;48.128;-1.704;2022-11-13T07:57:12;12.20;96.40
60909;DHT22;46780;48.128;-1.704;2022-11-13T07:59:39;12.20;96.40
60909;DHT22;46780;48.128;-1.704;2022-11-13T08:02:07;12.30;96.40
60909;DHT22;46780;48.128;-1.704;2022-11-13T08:04:35;12.30;96.40
60909;DHT22;46780;48.128;-1.704;2022-11-13T08:07:02;12.30;96.30
60909;DHT22;46780;48.128;-1.704;2022-11-13T08:09:30;12.30;96.30
60909;DHT22;46780;48.128;-1.704;2022-11-13T08:11:56;12.30;96.20
60909;DHT22;46780;48.128;-1.704;2022-11-13T08:14:22;12.30;96.10
60909;DHT22;46780;48.128;-1.704;2022-11-13T08:16:49;12.30;96.10
60909;DHT22;46780;48.128;-1.704;2022-11-13T08:19:15;12.30;96.20
60909;DHT22;46780;48.128;-1.704;2022-11-13T08:21:42;12.30;96.20
60909;DHT22;46780;48.128;-1.704;2022-11-13T08:24:08;12.40;96.20
60909;DHT22;46780;48.128;-1.704;2022-11-13T08:26:38;12.40;96.20
60909;DHT22;46780;48.128;-1.704;2022-11-13T08:29:04;12.40;96.10
60909;DHT22;46780;48.128;-1.704;2022-11-13T08:31:31;12.40;96.10
60909;DHT22;46780;48.128;-1.704;2022-11-13T08:33:59;12.40;96.10
60909;DHT22;46780;48.128;-1.704;2022-11-13T08:36:25;12.40;96.00
60909;DHT22;46780;48.128;-1.704;2022-11-13T08:38:52;12.40;95.90
60909;DHT22;46780;48.128;-1.704;2022-11-13T08:41:18;12.50;95.80
60909;DHT22;46780;48.128;-1.704;2022-11-13T08:43:46;12.50;95.70
60909;DHT22;46780;48.128;-1.704;2022-11-13T08:46:12;12.40;95.70
60909;DHT22;46780;48.128;-1.704;2022-11-13T08:48:39;12.40;95.80
60909;DHT22;46780;48.128;-1.704;2022-11-13T08:51:05;12.40;95.90
60909;DHT22;46780;48.128;-1.704;2022-11-13T08:53:32;12.50;95.90
60909;DHT22;46780;48.128;-1.704;2022-11-13T08:55:59;12.50;96.00
60909;DHT22;46780;48.128;-1.704;2022-11-13T08:58:26;12.60;96.00
60909;DHT22;46780;48.128;-1.704;2022-11-13T09:00:58;12.60;95.90
60909;DHT22;46780;48.128;-1.704;2022-11-13T09:03:25;12.70;95.70
60909;DHT22;46780;48.128;-1.704;2022-11-13T09:05:51;12.70;95.60
60909;DHT22;46780;48.128;-1.704;2022-11-13T09:08:18;12.70;95.50
60909;DHT22;46780;48.128;-1.704;2022-11-13T09:10:44;12.70;95.50
60909;DHT22;46780;48.128;-1.704;2022-11-13T09:13:11;12.70;95.40
60909;DHT22;46780;48.128;-1.704;2022-11-13T09:15:38;12.70;95.40
60909;DHT22;46780;48.128;-1.704;2022-11-13T09:18:06;12.70;95.30
60909;DHT22;46780;48.128;-1.704;2022-11-13T09:20:33;12.70;95.20
60909;DHT22;46780;48.128;-1.704;2022-11-13T09:23:01;12.70;95.10
60909;DHT22;46780;48.128;-1.704;2022-11-13T09:25:29;12.70;95.20
60909;DHT22;46780;48.128;-1.704;2022-11-13T09:27:57;12.70;95.30
60909;DHT22;46780;48.128;-1.704;2022-11-13T09:30:24;12.80;95.50
60909;DHT22;46780;48.128;-1.704;2022-11-13T09:32:52;12.90;95.50
60909;DHT22;46780;48.128;-1.704;2022-11-13T09:35:20;12.90;95.90
60909;DHT22;46780;48.128;-1.704;2022-11-13T09:37:50;13.00;95.50
60909;DHT22;46780;48.128;-1.704;2022-11-13T09:40:24;13.10;95.40
60909;DHT22;46780;48.128;-1.704;2022-11-13T09:42:53;13.10;95.30
60909;DHT22;46780;48.128;-1.704;2022-11-13T09:45:19;13.20;95.10
60909;DHT22;46780;48.128;-1.704;2022-11-13T09:47:46;13.20;94.90
60909;DHT22;46780;48.128;-1.704;2022-11-13T09:50:18;13.30;94.80
60909;DHT22;46780;48.128;-1.704;2022-11-13T09:52:47;13.40;94.70
60909;DHT22;46780;48.128;-1.704;2022-11-13T09:55:17;13.50;94.60
60909;DHT22;46780;48.128;-1.704;2022-11-13T09:57:47;13.60;94.60
60909;DHT22;46780;48.128;-1.704;2022-11-13T10:00:16;13.70;94.60
60909;DHT22;46780;48.128;-1.704;2022-11-13T10:02:53;13.80;94.20
60909;DHT22;46780;48.128;-1.704;2022-11-13T10:05:28;13.90;93.90
60909;DHT22;46780;48.128;-1.704;2022-11-13T10:08:06;14.00;93.70
60909;DHT22;46780;48.128;-1.704;2022-11-13T10:10:46;14.00;93.40
60909;DHT22;46780;48.128;-1.704;2022-11-13T10:13:17;14.20;93.60
60909;DHT22;46780;48.128;-1.704;2022-11-13T10:15:49;14.30;93.70
60909;DHT22;46780;48.128;-1.704;2022-11-13T10:18:19;14.60;93.90
60909;DHT22;46780;48.128;-1.704;2022-11-13T10:20:49;14.90;93.60
60909;DHT22;46780;48.128;-1.704;2022-11-13T10:23:19;15.20;93.00
60909;DHT22;46780;48.128;-1.704;2022-11-13T10:25:46;15.60;92.10
60909;DHT22;46780;48.128;-1.704;2022-11-13T10:28:16;15.90;91.40
60909;DHT22;46780;48.128;-1.704;2022-11-13T10:30:43;16.20;90.70
60909;DHT22;46780;48.128;-1.704;2022-11-13T10:33:14;16.50;89.70
60909;DHT22;46780;48.128;-1.704;2022-11-13T10:35:47;16.80;88.80
60909;DHT22;46780;48.128;-1.704;2022-11-13T10:38:22;17.10;87.50
60909;DHT22;46780;48.128;-1.704;2022-11-13T10:40:49;17.40;85.10
60909;DHT22;46780;48.128;-1.704;2022-11-13T10:43:18;17.50;83.80
60909;DHT22;46780;48.128;-1.704;2022-11-13T10:45:53;17.70;82.80
60909;DHT22;46780;48.128;-1.704;2022-11-13T10:48:21;17.90;82.80
60909;DHT22;46780;48.128;-1.704;2022-11-13T10:50:56;18.10;81.80
60909;DHT22;46780;48.128;-1.704;2022-11-13T10:53:25;18.30;80.10
60909;DHT22;46780;48.128;-1.704;2022-11-13T10:55:55;18.50;79.50
60909;DHT22;46780;48.128;-1.704;2022-11-13T10:58:22;18.60;78.80
60909;DHT22;46780;48.128;-1.704;2022-11-13T11:00:49;18.80;77.90
60909;DHT22;46780;48.128;-1.704;2022-11-13T11:03:17;19.00;76.80
60909;DHT22;46780;48.128;-1.704;2022-11-13T11:05:54;19.10;76.50
60909;DHT22;46780;48.128;-1.704;2022-11-13T11:08:27;19.30;76.00
60909;DHT22;46780;48.128;-1.704;2022-11-13T11:10:57;19.40;74.60
60909;DHT22;46780;48.128;-1.704;2022-11-13T11:13:24;19.50;74.40
60909;DHT22;46780;48.128;-1.704;2022-11-13T11:15:55;19.60;73.50
60909;DHT22;46780;48.128;-1.704;2022-11-13T11:18:25;19.70;72.90
60909;DHT22;46780;48.128;-1.704;2022-11-13T11:20:54;19.80;72.50
60909;DHT22;46780;48.128;-1.704;2022-11-13T11:23:27;19.80;72.50
60909;DHT22;46780;48.128;-1.704;2022-11-13T11:25:58;19.90;72.50
60909;DHT22;46780;48.128;-1.704;2022-11-13T11:28:30;19.90;71.60
60909;DHT22;46780;48.128;-1.704;2022-11-13T11:31:04;20.10;71.10
60909;DHT22;46780;48.128;-1.704;2022-11-13T11:33:38;20.20;70.50
60909;DHT22;46780;48.128;-1.704;2022-11-13T11:36:16;20.20;70.60
60909;DHT22;46780;48.128;-1.704;2022-11-13T11:38:51;20.40;70.10
60909;DHT22;46780;48.128;-1.704;2022-11-13T11:41:24;20.50;69.60
60909;DHT22;46780;48.128;-1.704;2022-11-13T11:43:55;20.60;69.30
60909;DHT22;46780;48.128;-1.704;2022-11-13T11:46:24;20.70;68.60
60909;DHT22;46780;48.128;-1.704;2022-11-13T11:48:50;20.80;67.60
60909;DHT22;46780;48.128;-1.704;2022-11-13T11:51:22;20.80;67.40
60909;DHT22;46780;48.128;-1.704;2022-11-13T11:53:58;21.00;67.40
60909;DHT22;46780;48.128;-1.704;2022-11-13T11:56:31;21.10;67.30
60909;DHT22;46780;48.128;-1.704;2022-11-13T11:59:30;21.20;67.00
60909;DHT22;46780;48.128;-1.704;2022-11-13T12:02:40;21.30;65.70
60909;DHT22;46780;48.128;-1.704;2022-11-13T12:05:16;21.50;65.70
60909;DHT22;46780;48.128;-1.704;2022-11-13T12:08:34;21.50;65.00
60909;DHT22;46780;48.128;-1.704;2022-11-13T12:10:48;21.60;64.40
60909;DHT22;46780;48.128;-1.704;2022-11-13T12:13:27;21.70;64.50
60909;DHT22;46780;48.128;-1.704;2022-11-13T12:16:00;21.90;63.90
60909;DHT22;46780;48.128;-1.704;2022-11-13T12:18:34;22.00;63.00
60909;DHT22;46780;48.128;-1.704;2022-11-13T12:21:12;22.00;62.30
60909;DHT22;46780;48.128;-1.704;2022-11-13T12:23:54;22.10;62.70
60909;DHT22;46780;48.128;-1.704;2022-11-13T12:26:33;22.20;62.50
60909;DHT22;46780;48.128;-1.704;2022-11-13T12:29:15;22.30;61.40
60909;DHT22;46780;48.128;-1.704;2022-11-13T12:31:55;22.30;60.80
60909;DHT22;46780;48.128;-1.704;2022-11-13T12:34:28;22.40;60.60
60909;DHT22;46780;48.128;-1.704;2022-11-13T12:36:57;22.40;60.80
60909;DHT22;46780;48.128;-1.704;2022-11-13T12:39:37;22.40;60.50
60909;DHT22;46780;48.128;-1.704;2022-11-13T12:42:19;22.30;61.40
60909;DHT22;46780;48.128;-1.704;2022-11-13T12:44:55;22.30;61.30
60909;DHT22;46780;48.128;-1.704;2022-11-13T12:47:24;22.40;60.90
60909;DHT22;46780;48.128;-1.704;2022-11-13T12:49:59;22.50;60.70
60909;DHT22;46780;48.128;-1.704;2022-11-13T12:52:26;22.60;60.20
60909;DHT22;46780;48.128;-1.704;2022-11-13T12:55:03;22.60;60.30
60909;DHT22;46780;48.128;-1.704;2022-11-13T12:57:33;22.60;60.00
60909;DHT22;46780;48.128;-1.704;2022-11-13T13:00:20;22.60;59.80
60909;DHT22;46780;48.128;-1.704;2022-11-13T13:02:59;22.70;60.00
60909;DHT22;46780;48.128;-1.704;2022-11-13T13:05:45;22.70;60.20
60909;DHT22;46780;48.128;-1.704;2022-11-13T13:08:34;22.70;60.40
60909;DHT22;46780;48.128;-1.704;2022-11-13T13:11:15;22.70;59.60
60909;DHT22;46780;48.128;-1.704;2022-11-13T13:13:52;22.70;60.10
60909;DHT22;46780;48.128;-1.704;2022-11-13T13:16:24;22.70;60.30
60909;DHT22;46780;48.128;-1.704;2022-11-13T13:18:51;22.70;60.50
60909;DHT22;46780;48.128;-1.704;2022-11-13T13:21:19;22.80;60.40
60909;DHT22;46780;48.128;-1.704;2022-11-13T13:23:52;22.90;60.00
60909;DHT22;46780;48.128;-1.704;2022-11-13T13:26:56;22.90;59.60
60909;DHT22;46780;48.128;-1.704;2022-11-13T13:29:26;22.90;59.60
60909;DHT22;46780;48.128;-1.704;2022-11-13T13:32:10;22.90;59.50
60909;DHT22;46780;48.128;-1.704;2022-11-13T13:35:03;23.00;59.20
60909;DHT22;46780;48.128;-1.704;2022-11-13T13:37:46;23.00;59.20
60909;DHT22;46780;48.128;-1.704;2022-11-13T13:40:25;23.00;59.40
60909;DHT22;46780;48.128;-1.704;2022-11-13T13:43:21;23.10;59.40
60909;DHT22;46780;48.128;-1.704;2022-11-13T13:46:06;23.10;59.10
60909;DHT22;46780;48.128;-1.704;2022-11-13T13:48:37;23.20;59.10
60909;DHT22;46780;48.128;-1.704;2022-11-13T13:51:21;23.20;58.60
60909;DHT22;46780;48.128;-1.704;2022-11-13T13:54:17;23.20;58.20
60909;DHT22;46780;48.128;-1.704;2022-11-13T14:00:33;23.00;58.40
60909;DHT22;46780;48.128;-1.704;2022-11-13T14:03:27;23.00;58.50
60909;DHT22;46780;48.128;-1.704;2022-11-13T14:13:11;22.80;59.20
60909;DHT22;46780;48.128;-1.704;2022-11-13T14:15:47;22.70;59.70
60909;DHT22;46780;48.128;-1.704;2022-11-13T14:18:16;22.70;59.70
60909;DHT22;46780;48.128;-1.704;2022-11-13T14:20:48;22.60;60.00
60909;DHT22;46780;48.128;-1.704;2022-11-13T14:26:40;22.50;59.90
60909;DHT22;46780;48.128;-1.704;2022-11-13T14:29:31;22.40;61.00
60909;DHT22;46780;48.128;-1.704;2022-11-13T14:32:25;22.40;61.00
60909;DHT22;46780;48.128;-1.704;2022-11-13T14:34:56;22.40;61.00
60909;DHT22;46780;48.128;-1.704;2022-11-13T14:37:23;22.30;61.10
60909;DHT22;46780;48.128;-1.704;2022-11-13T14:39:51;22.30;61.20
60909;DHT22;46780;48.128;-1.704;2022-11-13T14:42:21;22.20;61.00
60909;DHT22;46780;48.128;-1.704;2022-11-13T14:44:48;22.20;61.20
60909;DHT22;46780;48.128;-1.704;2022-11-13T14:47:23;22.10;61.60
60909;DHT22;46780;48.128;-1.704;2022-11-13T14:49:50;22.10;61.80
60909;DHT22;46780;48.128;-1.704;2022-11-13T14:52:22;22.00;62.00
60909;DHT22;46780;48.128;-1.704;2022-11-13T14:55:00;22.00;61.90
60909;DHT22;46780;48.128;-1.704;2022-11-13T14:57:26;21.90;62.10
60909;DHT22;46780;48.128;-1.704;2022-11-13T14:59:53;21.80;62.30
60909;DHT22;46780;48.128;-1.704;2022-11-13T15:02:19;21.60;62.50
60909;DHT22;46780;48.128;-1.704;2022-11-13T15:04:46;21.50;63.00
60909;DHT22;46780;48.128;-1.704;2022-11-13T15:07:24;21.40;63.50
60909;DHT22;46780;48.128;-1.704;2022-11-13T15:09:52;21.20;64.20
60909;DHT22;46780;48.128;-1.704;2022-11-13T15:12:18;21.10;65.90
60909;DHT22;46780;48.128;-1.704;2022-11-13T15:14:45;20.90;65.50
60909;DHT22;46780;48.128;-1.704;2022-11-13T15:17:14;20.80;66.10
60909;DHT22;46780;48.128;-1.704;2022-11-13T15:19:41;20.70;66.80
60909;DHT22;46780;48.128;-1.704;2022-11-13T15:22:09;20.60;67.50
60909;DHT22;46780;48.128;-1.704;2022-11-13T15:24:37;20.50;67.80
60909;DHT22;46780;48.128;-1.704;2022-11-13T15:27:04;20.50;68.20
60909;DHT22;46780;48.128;-1.704;2022-11-13T15:29:30;20.40;68.60
60909;DHT22;46780;48.128;-1.704;2022-11-13T15:31:57;20.30;68.90
60909;DHT22;46780;48.128;-1.704;2022-11-13T15:34:23;20.20;69.20
60909;DHT22;46780;48.128;-1.704;2022-11-13T15:36:50;20.00;69.70
60909;DHT22;46780;48.128;-1.704;2022-11-13T15:39:16;20.00;70.20
60909;DHT22;46780;48.128;-1.704;2022-11-13T15:41:44;19.90;70.50
60909;DHT22;46780;48.128;-1.704;2022-11-13T15:44:13;19.70;71.10